Time;durP1;ratioP1;P1;durP2;ratioP2;P2;SDS_P1;SDS_P2;PMS_P1;PMS_P2;Temp;Humidity;BMP_temperature;BMP_pressure;BME280_temperature;BME280_humidity;BME280_pressure;Samples;Min_cycle;Max_cycle;Signal;HPM_P1;HPM_P2
2023/10/30 00:02:10;;;;;;;2.70;1.40;;;;;;;10.03;100.00;95527.63;5112520;28;20205;-56
2023/10/30 00:04:36;;;;;;;5.77;1.50;;;;;;;10.02;100.00;95532.06;5113257;28;20247;-55
2023/10/30 00:07:04;;;;;;;1.47;1.37;;;;;;;10.09;100.00;95544.63;5112498;28;20205;-54
2023/10/30 00:09:32;;;;;;;2.47;1.60;;;;;;;9.99;100.00;95540.34;5113236;28;20956;-55
2023/10/30 00:12:00;;;;;;;1.43;1.23;;;;;;;9.92;100.00;95534.06;5113160;28;20587;-54
2023/10/30 00:14:28;;;;;;;1.30;1.10;;;;;;;9.96;100.00;95548.59;5112772;28;20209;-56
2023/10/30 00:16:56;;;;;;;2.40;1.57;;;;;;;9.95;100.00;95544.28;5113474;28;20646;-55
2023/10/30 00:19:22;;;;;;;4.30;1.30;;;;;;;9.86;100.00;95545.31;5112698;28;20197;-56
2023/10/30 00:21:49;;;;;;;4.07;1.73;;;;;;;9.83;100.00;95550.09;5112585;28;20212;-56
2023/10/30 00:24:15;;;;;;;3.30;1.03;;;;;;;9.87;100.00;95546.13;5113291;28;20754;-57
2023/10/30 00:26:42;;;;;;;2.23;1.20;;;;;;;9.80;100.00;95551.25;5112565;28;20229;-56
2023/10/30 00:29:09;;;;;;;2.03;1.47;;;;;;;9.77;100.00;95556.88;5093833;28;20217;-56
2023/10/30 00:31:37;;;;;;;2.20;1.23;;;;;;;9.84;100.00;95549.94;5111991;28;20209;-56
2023/10/30 00:34:09;;;;;;;7.43;1.70;;;;;;;9.81;100.00;95552.88;5112067;28;20211;-56
2023/10/30 00:36:36;;;;;;;2.27;1.30;;;;;;;9.80;100.00;95545.97;5112710;28;20274;-56
2023/10/30 00:39:04;;;;;;;4.90;1.60;;;;;;;9.80;100.00;95555.69;5112131;28;20232;-57
2023/10/30 00:41:31;;;;;;;5.53;2.00;;;;;;;9.82;100.00;95549.25;5113096;28;20292;-56
2023/10/30 00:43:57;;;;;;;3.90;1.57;;;;;;;9.80;100.00;95559.16;5112130;28;20212;-55
2023/10/30 00:46:26;;;;;;;4.17;1.80;;;;;;;9.74;100.00;95553.72;5112185;28;20595;-56
2023/10/30 00:48:54;;;;;;;3.23;1.87;;;;;;;9.71;100.00;95541.66;5112109;28;20213;-56
2023/10/30 00:51:21;;;;;;;3.10;1.40;;;;;;;9.74;100.00;95549.25;5112401;28;20278;-56
2023/10/30 00:53:48;;;;;;;3.03;1.00;;;;;;;9.72;100.00;95559.16;5111938;28;20205;-56
2023/10/30 00:56:14;;;;;;;3.53;1.47;;;;;;;9.67;100.00;95566.72;5111774;28;20201;-56
2023/10/30 00:58:41;;;;;;;1.60;1.30;;;;;;;9.71;100.00;95561.94;5111252;28;20209;-54
2023/10/30 01:01:10;;;;;;;1.80;1.43;;;;;;;9.72;100.00;95569.72;5111993;28;20209;-56
2023/10/30 01:03:37;;;;;;;1.60;1.50;;;;;;;9.71;100.00;95564.59;5112402;28;20216;-54
2023/10/30 01:06:06;;;;;;;3.67;1.33;;;;;;;9.67;100.00;95561.47;5111265;28;20220;-55
2023/10/30 01:08:32;;;;;;;3.43;1.40;;;;;;;9.62;100.00;95571.69;5111761;28;20208;-56
2023/10/30 01:10:59;;;;;;;4.10;1.20;;;;;;;9.58;100.00;95567.72;5093845;28;20201;-56
2023/10/30 01:13:25;;;;;;;2.10;1.43;;;;;;;9.55;100.00;95578.63;5110974;28;20201;-55
2023/10/30 01:15:52;;;;;;;3.50;1.50;;;;;;;9.53;100.00;95575.28;5112119;28;20201;-56
2023/10/30 01:18:19;;;;;;;2.00;1.43;;;;;;;9.56;100.00;95575.00;5111669;28;20679;-56
2023/10/30 01:20:46;;;;;;;3.10;1.40;;;;;;;9.57;100.00;95578.44;5111855;28;20208;-56
2023/10/30 01:23:14;;;;;;;1.30;1.17;;;;;;;9.57;100.00;95576.63;5111161;28;20294;-56
2023/10/30 01:25:41;;;;;;;3.40;1.40;;;;;;;9.49;100.00;95588.00;5111142;28;20225;-57
2023/10/30 01:28:07;;;;;;;4.60;1.70;;;;;;;9.47;100.00;95589.16;5111130;28;20220;-56
2023/10/30 01:30:35;;;;;;;1.57;1.30;;;;;;;9.43;100.00;95593.09;5111605;28;20223;-56
2023/10/30 01:33:02;;;;;;;3.00;1.30;;;;;;;9.47;100.00;95582.06;5111020;28;20242;-55
2023/10/30 01:35:31;;;;;;;2.13;1.40;;;;;;;9.47;100.00;95581.22;5111254;28;20204;-55
2023/10/30 01:37:58;;;;;;;2.30;1.50;;;;;;;9.54;100.00;95576.13;5126537;28;20190;-56
2023/10/30 01:40:29;;;;;;;3.97;1.37;;;;;;;9.50;100.00;95578.25;5114902;28;20219;-56
2023/10/30 01:42:56;;;;;;;4.00;1.40;;;;;;;9.48;100.00;95574.97;5112591;28;20197;-55
2023/10/30 01:45:23;;;;;;;4.20;1.60;;;;;;;9.44;100.00;95571.00;5114092;28;20235;-54
2023/10/30 01:47:50;;;;;;;1.80;1.70;;;;;;;9.38;100.00;95567.22;5116245;28;20204;-56
2023/10/30 01:50:16;;;;;;;2.80;1.57;;;;;;;9.40;100.00;95561.75;5116620;28;20647;-56
2023/10/30 01:52:44;;;;;;;2.80;1.37;;;;;;;9.41;100.00;95555.50;5115116;28;20209;-56
2023/10/30 01:55:10;;;;;;;3.07;1.93;;;;;;;9.41;100.00;95563.41;5115524;28;20197;-57
2023/10/30 01:57:38;;;;;;;2.20;2.00;;;;;;;9.40;100.00;95559.13;5114842;28;20514;-56
2023/10/30 02:00:06;;;;;;;2.17;1.90;;;;;;;9.37;100.00;95554.16;5114806;28;20212;-57
2023/10/30 02:02:34;;;;;;;2.33;1.77;;;;;;;9.34;100.00;95547.41;5114175;28;20209;-54
2023/10/30 02:05:00;;;;;;;5.00;2.00;;;;;;;9.35;100.00;95562.22;5114596;28;20197;-56
2023/10/30 02:07:27;;;;;;;2.60;2.00;;;;;;;9.33;100.00;95558.94;5115004;28;20240;-57
2023/10/30 02:09:54;;;;;;;4.07;1.60;;;;;;;9.33;100.00;95552.84;5115162;28;20216;-56
2023/10/30 02:12:21;;;;;;;3.30;1.77;;;;;;;9.27;100.00;95553.50;5114874;28;20201;-54
2023/10/30 02:14:49;;;;;;;1.63;1.53;;;;;;;9.23;100.00;95541.59;5114739;28;20201;-56
2023/10/30 02:17:17;;;;;;;7.23;2.10;;;;;;;9.21;100.00;95538.31;5114900;28;20205;-56
2023/10/30 02:19:43;;;;;;;3.77;1.70;;;;;;;9.26;100.00;95551.84;5115022;28;20192;-56
2023/10/30 02:22:10;;;;;;;2.03;1.67;;;;;;;9.28;100.00;95549.88;5114252;28;20209;-56
2023/10/30 02:24:36;;;;;;;2.20;1.97;;;;;;;9.24;100.00;95538.00;5114753;28;20216;-58
2023/10/30 02:27:04;;;;;;;4.13;1.67;;;;;;;9.23;100.00;95544.25;5114762;28;20220;-56
2023/10/30 02:29:31;;;;;;;3.60;1.67;;;;;;;9.24;100.00;95533.53;5118477;28;20201;-57
2023/10/30 02:31:58;;;;;;;4.10;2.57;;;;;;;9.22;100.00;95526.75;5120494;28;20245;-56
2023/10/30 02:34:24;;;;;;;2.40;1.70;;;;;;;9.26;100.00;95536.00;5120710;28;20549;-56
2023/10/30 02:36:52;;;;;;;4.40;1.90;;;;;;;9.22;100.00;95518.84;5128378;28;20209;-56
2023/10/30 02:39:19;;;;;;;3.60;1.87;;;;;;;9.15;100.00;95502.84;5123902;28;20285;-55
2023/10/30 02:41:45;;;;;;;2.40;1.80;;;;;;;9.20;100.00;95516.38;5117681;28;20206;-55
2023/10/30 02:44:14;;;;;;;2.33;1.60;;;;;;;9.16;100.00;95514.22;5113910;28;20209;-55
2023/10/30 02:46:41;;;;;;;4.77;1.80;;;;;;;9.18;100.00;95513.06;5099173;28;20256;-56
2023/10/30 02:49:08;;;;;;;2.70;1.70;;;;;;;9.26;100.00;95509.63;5118604;28;20205;-54
2023/10/30 02:51:35;;;;;;;2.60;2.07;;;;;;;9.29;100.00;95511.94;5117897;28;21405;-56
2023/10/30 02:54:04;;;;;;;2.77;1.60;;;;;;;9.28;100.00;95507.66;5118314;28;20205;-56
2023/10/30 02:56:30;;;;;;;3.03;1.87;;;;;;;9.22;100.00;95514.41;5114063;28;20197;-54
2023/10/30 02:58:59;;;;;;;3.60;1.80;;;;;;;9.23;100.00;95515.22;5113663;28;20208;-55
2023/10/30 03:01:26;;;;;;;3.00;1.70;;;;;;;9.15;100.00;95523.13;5113947;28;20270;-55
2023/10/30 03:03:53;;;;;;;2.07;1.70;;;;;;;9.18;100.00;95523.63;5113525;28;20213;-56
2023/10/30 03:06:20;;;;;;;3.67;1.40;;;;;;;9.14;100.00;95524.94;5114071;28;20236;-56
2023/10/30 03:08:46;;;;;;;2.17;1.67;;;;;;;9.10;100.00;95517.53;5113212;28;20652;-54
2023/10/30 03:11:13;;;;;;;2.87;1.30;;;;;;;9.12;100.00;95519.00;5113677;28;20633;-55
2023/10/30 03:13:40;;;;;;;2.90;1.77;;;;;;;9.04;100.00;95520.78;5113386;28;20224;-56
2023/10/30 03:16:08;;;;;;;1.93;1.80;;;;;;;8.98;100.00;95520.44;5113928;28;20197;-56
2023/10/30 03:18:38;;;;;;;5.43;1.50;;;;;;;8.96;100.00;95513.69;5113758;28;20201;-56
2023/10/30 03:21:05;;;;;;;3.53;1.83;;;;;;;9.00;100.00;95517.63;5113851;28;20204;-57
2023/10/30 03:23:31;;;;;;;6.13;1.70;;;;;;;8.99;100.00;95518.66;5113651;28;20197;-56
2023/10/30 03:25:59;;;;;;;5.23;1.83;;;;;;;9.01;100.00;95521.94;5114005;28;20232;-56
2023/10/30 03:28:26;;;;;;;5.47;1.80;;;;;;;8.89;100.00;95502.94;5112971;28;20637;-55
2023/10/30 03:30:52;;;;;;;6.97;1.73;;;;;;;8.90;100.00;95507.25;5113203;28;20204;-56
2023/10/30 03:33:20;;;;;;;1.93;1.80;;;;;;;8.86;100.00;95511.19;5113788;28;20205;-56
2023/10/30 03:35:48;;;;;;;3.80;2.13;;;;;;;8.87;100.00;95509.38;5114982;28;20245;-55
2023/10/30 03:38:16;;;;;;;2.27;2.03;;;;;;;8.87;100.00;95504.94;5115642;28;20201;-56
2023/10/30 03:40:42;;;;;;;3.27;2.03;;;;;;;8.77;100.00;95504.25;5117500;28;21285;-56
2023/10/30 03:43:09;;;;;;;3.93;1.80;;;;;;;8.77;100.00;95512.16;5117271;28;20205;-56
2023/10/30 03:45:35;;;;;;;2.87;1.80;;;;;;;8.74;100.00;95504.56;5115102;28;20225;-57
2023/10/30 03:48:02;;;;;;;4.23;2.10;;;;;;;8.75;100.00;95505.41;5112430;28;20229;-55
2023/10/30 03:50:28;;;;;;;2.30;1.97;;;;;;;8.72;100.00;95495.97;5112896;28;20212;-56
2023/10/30 03:52:56;;;;;;;2.13;1.93;;;;;;;8.77;100.00;95509.50;5112756;28;20522;-56
2023/10/30 03:55:23;;;;;;;2.67;2.37;;;;;;;8.74;100.00;95515.09;5113209;28;20201;-56
2023/10/30 03:57:50;;;;;;;2.20;2.00;;;;;;;8.66;100.00;95522.16;5119024;28;20208;-56
2023/10/30 04:00:17;;;;;;;2.20;2.00;;;;;;;8.63;100.00;95523.28;5124194;28;20177;-55
2023/10/30 04:02:43;;;;;;;2.77;2.10;;;;;;;8.58;100.00;95522.94;5123702;28;20201;-56
2023/10/30 04:05:12;;;;;;;3.57;2.60;;;;;;;8.61;100.00;95522.59;5122332;28;20213;-54
2023/10/30 04:07:38;;;;;;;3.00;1.90;;;;;;;8.55;100.00;95536.44;5117482;28;20286;-56
2023/10/30 04:10:08;;;;;;;5.20;2.30;;;;;;;8.55;100.00;95523.25;5111926;28;20193;-56
2023/10/30 04:12:34;;;;;;;3.07;2.20;;;;;;;8.52;100.00;95520.94;5113027;28;20547;-56
2023/10/30 04:15:00;;;;;;;2.33;2.17;;;;;;;8.49;100.00;95516.00;5112323;28;20213;-56
2023/10/30 04:17:26;;;;;;;2.80;2.60;;;;;;;8.49;100.00;95510.72;5113001;28;20193;-56
2023/10/30 04:19:53;;;;;;;3.07;2.10;;;;;;;8.48;100.00;95503.78;5112141;28;20220;-55
2023/10/30 04:22:19;;;;;;;4.13;2.73;;;;;;;8.48;100.00;95509.06;5112458;28;20197;-56
2023/10/30 04:24:46;;;;;;;2.60;2.40;;;;;;;8.43;100.00;95511.34;5113368;28;20223;-57
2023/10/30 04:27:15;;;;;;;3.33;2.30;;;;;;;8.41;100.00;95508.03;5114574;28;20225;-54
2023/10/30 04:29:42;;;;;;;2.83;2.30;;;;;;;8.41;100.00;95500.97;5113547;28;20220;-56
2023/10/30 04:32:08;;;;;;;3.60;2.60;;;;;;;8.35;100.00;95508.66;5114859;28;20610;-57
2023/10/30 04:34:35;;;;;;;3.37;2.47;;;;;;;8.38;100.00;95508.34;5113267;28;20638;-55
2023/10/30 04:37:01;;;;;;;4.00;2.30;;;;;;;8.34;100.00;95507.00;5113954;28;20204;-56
2023/10/30 04:39:27;;;;;;;3.37;2.40;;;;;;;8.30;100.00;95498.59;5112533;28;20220;-56
2023/10/30 04:41:56;;;;;;;6.30;2.50;;;;;;;8.29;100.00;95504.03;5113389;28;20204;-54
2023/10/30 04:44:24;;;;;;;4.80;2.47;;;;;;;8.33;100.00;95494.81;5112361;28;20277;-57
2023/10/30 04:46:50;;;;;;;5.30;2.33;;;;;;;8.34;100.00;95496.47;5113821;28;20216;-56
2023/10/30 04:49:17;;;;;;;3.53;2.63;;;;;;;8.27;100.00;95496.25;5112418;28;20843;-56
2023/10/30 04:51:44;;;;;;;2.77;2.50;;;;;;;8.30;100.00;95505.66;5112460;28;20624;-56
2023/10/30 04:54:11;;;;;;;2.70;2.50;;;;;;;8.28;100.00;95507.63;5111665;28;20251;-55
2023/10/30 04:56:39;;;;;;;4.67;2.53;;;;;;;8.29;100.00;95499.56;5112166;28;20204;-54
2023/10/30 04:59:06;;;;;;;2.23;2.13;;;;;;;8.30;100.00;95497.78;5111463;28;20643;-54
2023/10/30 05:01:34;;;;;;;2.70;2.50;;;;;;;8.25;100.00;95486.88;5111807;28;20537;-56
2023/10/30 05:04:02;;;;;;;3.43;2.40;;;;;;;8.25;100.00;95494.78;5112238;28;20224;-56
2023/10/30 05:06:29;;;;;;;3.50;2.13;;;;;;;8.25;100.00;95487.69;5112042;28;20228;-55
2023/10/30 05:08:56;;;;;;;5.23;2.60;;;;;;;8.28;100.00;95497.09;5112134;28;20201;-56
2023/10/30 05:11:25;;;;;;;5.73;2.40;;;;;;;8.35;100.00;95493.69;5111957;28;20209;-55
2023/10/30 05:13:51;;;;;;;5.00;2.20;;;;;;;8.35;100.00;95490.25;5111554;28;20201;-55
2023/10/30 05:16:18;;;;;;;2.30;2.20;;;;;;;8.38;100.00;95497.81;5112339;28;20228;-55
2023/10/30 05:18:46;;;;;;;2.80;2.50;;;;;;;8.40;100.00;95490.56;5111589;28;20644;-56
2023/10/30 05:21:12;;;;;;;6.43;2.70;;;;;;;8.35;100.00;95492.88;5112241;28;20193;-56
2023/10/30 05:23:40;;;;;;;5.67;2.70;;;;;;;8.36;100.00;95494.53;5111589;28;20205;-56
2023/10/30 05:26:06;;;;;;;4.43;3.00;;;;;;;8.30;100.00;95498.59;5111970;28;20205;-56
2023/10/30 05:28:35;;;;;;;3.57;2.53;;;;;;;8.30;100.00;95498.59;5111055;28;20223;-56
2023/10/30 05:31:06;;;;;;;5.63;2.70;;;;;;;8.35;100.00;95500.78;5111413;28;20194;-57
2023/10/30 05:33:34;;;;;;;4.17;3.00;;;;;;;8.36;100.00;95505.88;5111693;28;20557;-56
2023/10/30 05:36:02;;;;;;;4.10;2.70;;;;;;;8.35;100.00;95501.59;5111152;28;20215;-56
2023/10/30 05:38:28;;;;;;;3.90;3.10;;;;;;;8.31;100.00;95496.78;5110441;28;20201;-56
2023/10/30 05:40:55;;;;;;;3.10;2.80;;;;;;;8.35;100.00;95501.59;5111037;28;20208;-55
2023/10/30 05:43:21;;;;;;;2.70;2.50;;;;;;;8.28;100.00;95483.91;5112115;28;20560;-56
2023/10/30 05:45:50;;;;;;;3.20;2.97;;;;;;;8.24;100.00;95480.78;5111434;28;20236;-56
2023/10/30 05:48:17;;;;;;;3.43;3.00;;;;;;;8.31;100.00;95487.09;5111570;28;20240;-56
2023/10/30 05:50:45;;;;;;;3.67;2.77;;;;;;;8.29;100.00;95485.59;5111342;28;20208;-54
2023/10/30 05:53:13;;;;;;;5.50;3.00;;;;;;;8.24;100.00;95479.94;5111868;28;20193;-56
2023/10/30 05:55:39;;;;;;;3.70;2.50;;;;;;;8.24;100.00;95466.78;5111572;28;20201;-56
2023/10/30 05:58:08;;;;;;;3.37;3.07;;;;;;;8.24;100.00;95469.41;5111555;28;20198;-56
2023/10/30 06:00:35;;;;;;;3.47;2.70;;;;;;;8.24;100.00;95466.78;5111904;28;20209;-56
2023/10/30 06:03:01;;;;;;;3.97;2.63;;;;;;;8.22;100.00;95471.38;5111750;28;20204;-55
2023/10/30 06:05:28;;;;;;;5.17;2.90;;;;;;;8.21;100.00;95459.19;5110444;28;20201;-55
2023/10/30 06:07:54;;;;;;;3.27;2.93;;;;;;;8.22;100.00;95461.66;5112207;28;20213;-55
2023/10/30 06:10:25;;;;;;;3.30;2.67;;;;;;;8.26;100.00;95473.53;5110462;28;20629;-56
2023/10/30 06:12:51;;;;;;;3.47;2.70;;;;;;;8.31;100.00;95467.81;5111155;28;20201;-57
2023/10/30 06:15:18;;;;;;;3.87;3.07;;;;;;;8.32;100.00;95464.22;5111519;28;20205;-56
2023/10/30 06:17:46;;;;;;;3.07;2.53;;;;;;;8.32;100.00;95464.22;5115093;28;20254;-55
2023/10/30 06:20:12;;;;;;;9.97;2.83;;;;;;;8.36;100.00;95473.47;5130723;28;20216;-55
2023/10/30 06:22:39;;;;;;;5.43;2.80;;;;;;;8.43;100.00;95466.56;5132697;28;20208;-55
2023/10/30 06:25:06;;;;;;;4.23;2.70;;;;;;;8.43;100.00;95472.66;5125135;28;20193;-56
2023/10/30 06:27:34;;;;;;;2.80;2.37;;;;;;;8.46;100.00;95474.16;5111411;28;20236;-56
2023/10/30 06:30:01;;;;;;;4.83;3.10;;;;;;;8.49;100.00;95469.41;5110033;28;20621;-57
2023/10/30 06:32:28;;;;;;;3.93;2.97;;;;;;;8.54;100.00;95476.81;5112681;27;20197;-55
2023/10/30 06:34:56;;;;;;;5.60;3.00;;;;;;;8.50;100.00;95464.97;5114506;28;20209;-55
2023/10/30 06:37:23;;;;;;;3.43;3.07;;;;;;;8.54;100.00;95461.00;5096885;28;20193;-56
2023/10/30 06:39:51;;;;;;;7.27;3.20;;;;;;;8.55;100.00;95457.38;5115052;28;20206;-56
2023/10/30 06:42:19;;;;;;;6.60;3.77;;;;;;;8.65;100.00;95460.69;5114514;28;20214;-55
2023/10/30 06:44:48;;;;;;;6.37;3.27;;;;;;;8.74;100.00;95465.03;5113774;28;20236;-55
2023/10/30 06:47:14;;;;;;;4.87;3.30;;;;;;;8.78;100.00;95466.38;5114910;28;20213;-56
2023/10/30 06:49:41;;;;;;;4.23;3.20;;;;;;;8.82;100.00;95470.31;5114067;28;20205;-55
2023/10/30 06:52:08;;;;;;;5.27;3.40;;;;;;;8.81;100.00;95470.47;5115507;28;20201;-55
2023/10/30 06:54:37;;;;;;;4.50;3.33;;;;;;;8.83;100.00;95471.97;5114696;28;20208;-55
2023/10/30 06:57:04;;;;;;;3.40;3.10;;;;;;;8.84;100.00;95478.06;5115567;28;20204;-55
2023/10/30 06:59:30;;;;;;;5.77;3.40;;;;;;;8.87;100.00;95477.75;5113554;28;20209;-56
2023/10/30 07:01:59;;;;;;;3.60;3.30;;;;;;;8.90;100.00;95470.34;5114476;28;20197;-55
2023/10/30 07:04:25;;;;;;;7.13;3.97;;;;;;;9.03;100.00;95466.41;5114265;28;20633;-55
2023/10/30 07:06:54;;;;;;;4.57;4.07;;;;;;;9.09;100.00;95471.84;5114842;28;20657;-55
2023/10/30 07:09:21;;;;;;;8.40;6.73;;;;;;;9.14;100.00;95463.47;5114397;28;20197;-56
2023/10/30 07:11:47;;;;;;;5.73;5.00;;;;;;;9.19;100.00;95467.25;5115123;28;20228;-56
2023/10/30 07:14:14;;;;;;;5.13;3.90;;;;;;;9.24;100.00;95474.69;5114494;28;20237;-56
2023/10/30 07:16:41;;;;;;;4.10;3.67;;;;;;;9.31;100.00;95471.25;5114072;28;20633;-58
2023/10/30 07:19:09;;;;;;;7.47;3.93;;;;;;;9.42;100.00;95468.25;5113466;28;20263;-55
2023/10/30 07:21:36;;;;;;;5.37;4.00;;;;;;;9.53;100.00;95466.28;5114528;28;20209;-54
2023/10/30 07:24:02;;;;;;;6.27;4.20;;;;;;;9.66;100.00;95470.09;5111665;28;20212;-52
2023/10/30 07:26:29;;;;;;;5.43;4.20;;;;;;;9.78;100.00;95471.38;5113377;28;20209;-54
2023/10/30 07:28:56;;;;;;;6.30;4.17;;;;;;;9.91;100.00;95477.00;5112724;28;20217;-53
2023/10/30 07:31:23;;;;;;;5.17;4.60;;;;;;;10.02;100.00;95463.41;5113066;28;20638;-53
2023/10/30 07:33:54;;;;;;;5.30;4.10;;;;;;;10.17;100.00;95468.03;5113541;28;20649;-53
2023/10/30 07:36:23;;;;;;;6.13;4.33;;;;;;;10.26;100.00;95465.22;5114576;28;20204;-54
2023/10/30 07:38:49;;;;;;;5.97;5.13;;;;;;;10.30;100.00;95466.53;5112240;28;20205;-54
2023/10/30 07:41:16;;;;;;;7.50;4.43;;;;;;;10.42;100.00;95469.59;5113946;28;20209;-53
2023/10/30 07:43:44;;;;;;;6.40;4.60;;;;;;;10.48;100.00;95471.59;5111911;28;20197;-52
2023/10/30 07:46:13;;;;;;;4.87;4.43;;;;;;;10.59;100.00;95470.41;5111674;28;20230;-53
2023/10/30 07:48:40;;;;;;;5.47;4.60;;;;;;;10.67;100.00;95465.88;5112806;28;20268;-53
2023/10/30 07:51:07;;;;;;;5.73;4.87;;;;;;;10.75;100.00;95463.19;5113020;28;20209;-54
2023/10/30 07:53:35;;;;;;;7.10;5.10;;;;;;;10.80;100.00;95460.88;5113164;28;20205;-54
2023/10/30 07:56:01;;;;;;;7.23;4.57;;;;;;;10.91;100.00;95449.88;5112397;28;20198;-53
2023/10/30 07:58:28;;;;;;;6.70;4.03;;;;;;;10.94;100.00;95457.50;5113235;28;20212;-56
2023/10/30 08:00:55;;;;;;;6.30;4.40;;;;;;;10.98;100.00;95463.25;5112872;28;20629;-56
2023/10/30 08:03:21;;;;;;;5.50;4.60;;;;;;;11.02;100.00;95453.97;5114062;28;20211;-56
2023/10/30 08:05:50;;;;;;;6.10;4.57;;;;;;;11.13;100.00;95444.78;5113182;28;20291;-55
2023/10/30 08:08:18;;;;;;;5.00;4.50;;;;;;;11.11;100.00;95458.22;5113512;28;20225;-54
2023/10/30 08:10:47;;;;;;;7.37;4.40;;;;;;;11.28;100.00;95453.63;5112246;28;20220;-56
2023/10/30 08:13:15;;;;;;;6.63;4.47;;;;;;;11.28;100.00;95438.56;5111564;28;20209;-59
2023/10/30 08:15:41;;;;;;;7.60;4.57;;;;;;;11.42;100.00;95453.69;5111330;28;20204;-54
2023/10/30 08:18:08;;;;;;;4.77;4.37;;;;;;;11.37;100.00;95442.00;5112227;28;20681;-55
2023/10/30 08:20:34;;;;;;;5.30;4.37;;;;;;;11.36;100.00;95449.13;5112043;28;20224;-55
2023/10/30 08:23:01;;;;;;;4.57;4.00;;;;;;;11.45;100.00;95461.28;5117528;28;20197;-56
2023/10/30 08:25:29;;;;;;;6.30;4.80;;;;;;;11.39;100.00;95462.00;5113481;28;20205;-56
2023/10/30 08:28:11;;;;;;;5.07;4.57;;;;;;;11.50;100.00;95468.69;5113115;28;20229;-54
2023/10/30 08:30:37;;;;;;;5.00;4.50;;;;;;;11.54;100.00;95464.69;5112773;28;20572;-56
2023/10/30 08:33:08;;;;;;;5.83;4.73;;;;;;;11.59;100.00;95467.63;5112042;28;20640;-55
2023/10/30 08:35:37;;;;;;;5.13;4.63;;;;;;;11.64;100.00;95462.63;5112802;28;20211;-56
2023/10/30 08:38:04;;;;;;;5.07;4.57;;;;;;;11.68;100.00;95445.38;5111899;28;20208;-55
2023/10/30 08:40:30;;;;;;;5.23;4.70;;;;;;;11.66;100.00;95441.25;5108095;28;20316;-54
2023/10/30 08:42:59;;;;;;;5.20;4.37;;;;;;;11.79;100.00;95436.22;5112184;28;20212;-56
2023/10/30 08:45:28;;;;;;;5.33;4.60;;;;;;;11.82;100.00;95434.03;5116913;28;20243;-56
2023/10/30 08:47:55;;;;;;;4.60;4.20;;;;;;;11.87;100.00;95429.00;5124902;28;20213;-56
2023/10/30 08:50:21;;;;;;;6.83;4.60;;;;;;;11.84;100.00;95420.59;5133072;28;20212;-55
2023/10/30 08:52:50;;;;;;;4.33;4.03;;;;;;;11.84;100.00;95421.41;5126382;28;20197;-56
2023/10/30 08:55:17;;;;;;;4.60;4.20;;;;;;;11.83;100.00;95416.31;5110785;28;20197;-55
2023/10/30 08:57:43;;;;;;;6.20;4.43;;;;;;;11.80;100.00;95417.47;5111253;28;20224;-56
2023/10/30 09:00:12;;;;;;;6.97;4.80;;;;;;;11.79;100.00;95399.97;5111651;28;20197;-56
2023/10/30 09:02:39;;;;;;;5.77;4.60;;;;;;;11.75;100.00;95393.38;5111671;28;20205;-56
2023/10/30 09:05:07;;;;;;;5.30;4.13;;;;;;;11.72;100.00;95393.75;5110964;28;20197;-56
2023/10/30 09:07:34;;;;;;;6.50;4.80;;;;;;;11.72;100.00;95399.03;5110490;28;20209;-55
2023/10/30 09:10:00;;;;;;;5.33;4.47;;;;;;;11.75;100.00;95395.19;5111460;28;20216;-55
2023/10/30 09:12:26;;;;;;;6.13;4.80;;;;;;;11.74;100.00;95391.72;5109779;28;20289;-56
2023/10/30 09:14:54;;;;;;;5.23;4.73;;;;;;;11.77;100.00;95374.63;5109906;28;20209;-56
2023/10/30 09:17:23;;;;;;;5.53;5.00;;;;;;;11.74;100.00;95370.53;5111818;28;20262;-55
2023/10/30 09:19:49;;;;;;;4.90;4.50;;;;;;;11.77;100.00;95362.22;5110037;28;20212;-56
2023/10/30 09:22:15;;;;;;;6.83;4.73;;;;;;;11.77;100.00;95364.88;5109695;28;20201;-56
2023/10/30 09:24:43;;;;;;;5.97;4.13;;;;;;;11.81;100.00;95368.81;5110430;28;20209;-57
2023/10/30 09:27:10;;;;;;;4.87;4.27;;;;;;;11.80;100.00;95368.97;5108671;28;20224;-56
2023/10/30 09:29:36;;;;;;;5.10;4.60;;;;;;;11.88;100.00;95371.53;5110122;28;20232;-56
2023/10/30 09:32:03;;;;;;;5.17;4.33;;;;;;;11.90;100.00;95357.09;5115433;28;20211;-54
2023/10/30 09:34:31;;;;;;;4.40;3.97;;;;;;;11.87;100.00;95354.81;5125232;28;20205;-55
2023/10/30 09:36:58;;;;;;;4.90;4.43;;;;;;;11.90;100.00;95354.47;5124029;28;20220;-56
2023/10/30 09:39:25;;;;;;;7.50;4.97;;;;;;;11.93;100.00;95350.66;5127926;28;20198;-56
2023/10/30 09:41:54;;;;;;;5.23;4.53;;;;;;;11.91;100.00;95347.34;5116547;28;20208;-57
2023/10/30 09:44:21;;;;;;;7.67;4.77;;;;;;;11.90;100.00;95354.47;5106091;28;20248;-56
2023/10/30 09:46:48;;;;;;;5.17;4.60;;;;;;;11.94;100.00;95349.63;5110107;28;20240;-54
2023/10/30 09:49:16;;;;;;;7.23;5.60;;;;;;;12.01;100.00;95349.72;5115952;28;20235;-56
2023/10/30 09:51:45;;;;;;;6.10;5.40;;;;;;;12.01;100.00;95350.53;5114681;28;20207;-56
2023/10/30 09:54:12;;;;;;;6.00;5.30;;;;;;;12.11;100.00;95355.56;5113587;28;20229;-57
2023/10/30 09:56:39;;;;;;;6.30;5.10;;;;;;;12.20;100.00;95351.81;5115722;28;20270;-56
2023/10/30 09:59:06;;;;;;;5.20;4.70;;;;;;;12.25;100.00;95363.53;5114363;28;20211;-57
2023/10/30 10:01:33;;;;;;;5.40;4.90;;;;;;;12.29;100.00;95350.72;5111238;28;20205;-56
2023/10/30 10:03:59;;;;;;;6.53;5.07;;;;;;;12.47;100.00;95343.16;5108898;28;20228;-55
2023/10/30 10:06:26;;;;;;;6.23;4.77;;;;;;;12.66;100.00;95339.94;5111496;28;20652;-55
2023/10/30 10:08:54;;;;;;;5.00;4.50;;;;;;;12.92;100.00;95350.84;5115073;28;20555;-56
2023/10/30 10:11:22;;;;;;;6.10;5.50;;;;;;;13.04;100.00;95340.50;5115143;28;20211;-56
2023/10/30 10:13:49;;;;;;;5.30;4.80;;;;;;;13.25;100.00;95334.44;5114972;28;20193;-54
2023/10/30 10:16:17;;;;;;;5.60;5.10;;;;;;;13.58;100.00;95324.03;5115523;28;20286;-55
2023/10/30 10:18:46;;;;;;;7.20;5.00;;;;;;;13.75;100.00;95320.91;5114238;28;20498;-57
2023/10/30 10:21:14;;;;;;;9.02;4.85;;;;;;;14.06;100.00;95322.31;5115205;28;20538;-55
2023/10/30 10:23:43;;;;;;;7.47;4.90;;;;;;;14.06;100.00;95312.50;5114901;28;20522;-55
2023/10/30 10:26:14;;;;;;;9.18;5.07;;;;;;;13.92;100.00;95313.47;5114420;28;20197;-56
2023/10/30 10:28:41;;;;;;;6.07;4.80;;;;;;;13.88;100.00;95315.69;5113152;28;20232;-57
2023/10/30 10:31:09;;;;;;;6.50;4.47;;;;;;;13.75;100.00;95307.63;5113996;28;20216;-56
2023/10/30 10:33:35;;;;;;;6.28;4.85;;;;;;;13.71;100.00;95295.72;5113887;28;20209;-54
2023/10/30 10:36:03;;;;;;;6.13;4.95;;;;;;;13.64;100.00;95291.41;5114568;28;20209;-56
2023/10/30 10:38:30;;;;;;;6.47;5.28;;;;;;;13.40;100.00;95290.00;5112809;28;20661;-55
2023/10/30 10:40:57;;;;;;;7.75;5.05;;;;;;;13.31;100.00;95283.22;5114093;28;20201;-55
2023/10/30 10:43:28;;;;;;;7.00;5.00;;;;;;;13.35;100.00;95292.44;5114170;28;20269;-57
2023/10/30 10:45:56;;;;;;;7.15;4.90;;;;;;;13.44;100.00;95291.28;5113557;28;20225;-56
2023/10/30 10:48:24;;;;;;;6.47;4.47;;;;;;;13.40;100.00;95297.97;5113532;28;20232;-55
2023/10/30 10:50:51;;;;;;;6.55;5.45;;;;;;;13.45;100.00;95295.56;5113333;28;20288;-55
2023/10/30 10:53:19;;;;;;;13.23;6.43;;;;;;;13.57;100.00;95301.19;5114307;28;20201;-56
2023/10/30 10:55:46;;;;;;;5.72;5.22;;;;;;;13.73;100.00;95295.56;5113787;28;20212;-55
2023/10/30 10:58:17;;;;;;;7.25;5.35;;;;;;;13.80;100.00;95275.97;5113658;28;20201;-55
2023/10/30 11:00:50;;;;;;;6.97;5.25;;;;;;;13.77;100.00;95268.41;5114098;28;20209;-56
2023/10/30 11:03:17;;;;;;;6.60;4.90;;;;;;;13.93;100.00;95273.38;5113853;28;20198;-55
2023/10/30 11:05:45;;;;;;;7.15;4.95;;;;;;;14.06;100.00;95266.50;5113725;28;20216;-57
2023/10/30 11:08:33;;;;;;;11.05;5.20;;;;;;;14.18;100.00;95278.19;5113646;28;20197;-55
2023/10/30 11:11:07;;;;;;;5.78;5.18;;;;;;;14.23;100.00;95286.41;5114584;28;20216;-55
2023/10/30 11:13:42;;;;;;;5.90;5.20;;;;;;;14.24;100.00;95286.19;5113262;28;20245;-56
2023/10/30 11:16:13;;;;;;;6.72;5.30;;;;;;;14.23;100.00;95281.09;5113969;28;20196;-57
2023/10/30 11:18:40;;;;;;;5.53;4.78;;;;;;;14.18;100.00;95288.81;5112765;28;20189;-56
2023/10/30 11:21:11;;;;;;;7.85;5.28;;;;;;;14.16;100.00;95275.75;5113156;28;20212;-56
2023/10/30 11:23:49;;;;;;;6.28;4.72;;;;;;;14.22;100.00;95279.44;5112488;28;20292;-56
2023/10/30 11:26:38;;;;;;;5.22;4.72;;;;;;;14.12;100.00;95274.50;5113914;28;20215;-56
2023/10/30 11:29:06;;;;;;;5.88;4.55;;;;;;;14.06;100.00;95271.81;5113449;28;20232;-57
2023/10/30 11:31:51;;;;;;;5.60;5.05;;;;;;;14.11;100.00;95264.06;5113641;28;20287;-54